Time;durP1;ratioP1;P1;durP2;ratioP2;P2;SDS_P1;SDS_P2;PMS_P1;PMS_P2;Temp;Humidity;BMP_temperature;BMP_pressure;BME280_temperature;BME280_humidity;BME280_pressure;Samples;Min_cycle;Max_cycle;Signal;HPM_P1;HPM_P2
2022/03/27 00:00:59;;;;;;;;;;;;;;;;;;5043259;28;19952;-52
2022/03/27 00:03:24;;;;;;;;;;;;;;;;;;5054775;28;19912;-49
2022/03/27 00:05:49;;;;;;;;;;;;;;;;;;5054878;28;19909;-49
2022/03/27 00:08:14;;;;;;;;;;;;;;;;;;5054233;28;20311;-48
2022/03/27 00:13:24;;;;;;;;;;;;;;;;;;5054766;28;19916;-48
2022/03/27 00:15:49;;;;;;;;;;;;;;;;;;5054630;28;19909;-49
2022/03/27 00:18:14;;;;;;;;;;;;;;;;;;5054419;28;20417;-49
2022/03/27 00:20:40;;;;;;;;;;;;;;;;;;5054489;28;20326;-49
2022/03/27 00:23:05;;;;;;;;;;;;;;;;;;5053548;28;20031;-47
2022/03/27 00:25:30;;;;;;;;;;;;;;;;;;5049315;28;19964;-51
2022/03/27 00:27:55;;;;;;;;;;;;;;;;;;5034618;28;19909;-49
2022/03/27 00:30:20;;;;;;;;;;;;;;;;;;5034380;28;19909;-48
2022/03/27 00:32:45;;;;;;;;;;;;;;;;;;5034611;28;20004;-49
2022/03/27 00:35:10;;;;;;;;;;;;;;;;;;5034434;28;19991;-50
2022/03/27 00:37:36;;;;;;;;;;;;;;;;;;5034508;28;19996;-49
2022/03/27 00:40:01;;;;;;;;;;;;;;;;;;5034394;28;19941;-49
2022/03/27 00:42:26;;;;;;;;;;;;;;;;;;5034359;28;19988;-49
2022/03/27 00:44:51;;;;;;;;;;;;;;;;;;5034284;28;19917;-49
2022/03/27 00:47:16;;;;;;;;;;;;;;;;;;5034373;28;19943;-49
2022/03/27 00:49:41;;;;;;;;;;;;;;;;;;5034288;28;19958;-51
2022/03/27 00:52:06;;;;;;;;;;;;;;;;;;5034329;28;20039;-49
2022/03/27 00:54:31;;;;;;;;;;;;;;;;;;5034275;28;19960;-49
2022/03/27 00:56:56;;;;;;;;;;;;;;;;;;5049504;28;19920;-50
2022/03/27 00:59:22;;;;;;;;;;;;;;;;;;5054253;28;20280;-48
2022/03/27 01:01:47;;;;;;;;;;;;;;;;;;5054244;28;20413;-49
2022/03/27 01:04:12;;;;;;;;;;;;;;;;;;5057788;28;19944;-49
2022/03/27 01:06:38;;;;;;;;;;;;;;;;;;5057825;28;19913;-49
2022/03/27 01:11:47;;;;;;;;;;;;;;;;;;5057925;28;20334;-49
2022/03/27 01:14:14;;;;;;;;;;;;;;;;;;5057782;28;19916;-51
2022/03/27 01:16:39;;;;;;;;;;;;;;;;;;5057575;28;19948;-52
2022/03/27 01:19:04;;;;;;;;;;;;;;;;;;5057243;28;19920;-48
2022/03/27 01:21:29;;;;;;;;;;;;;;;;;;5057202;28;20291;-52
2022/03/27 01:23:54;;;;;;;;;;;;;;;;;;5047656;23;20360;-47
2022/03/27 01:26:20;;;;;;;;;;;;;;;;;;5037506;28;19913;-49
2022/03/27 01:28:45;;;;;;;;;;;;;;;;;;5037086;28;19913;-50
2022/03/27 01:31:10;;;;;;;;;;;;;;;;;;5037015;28;19909;-50
2022/03/27 01:33:35;;;;;;;;;;;;;;;;;;5037200;28;20275;-52
2022/03/27 01:36:01;;;;;;;;;;;;;;;;;;5037149;28;19924;-49
2022/03/27 01:38:26;;;;;;;;;;;;;;;;;;5037331;28;19910;-50
2022/03/27 01:40:51;;;;;;;;;;;;;;;;;;5037364;28;19983;-49
2022/03/27 01:43:16;;;;;;;;;;;;;;;;;;5035686;28;20356;-51
2022/03/27 01:45:41;;;;;;;;;;;;;;;;;;5037179;28;19910;-49
2022/03/27 01:48:06;;;;;;;;;;;;;;;;;;5037720;28;19984;-49
2022/03/27 01:50:31;;;;;;;;;;;;;;;;;;5037151;28;19944;-49
2022/03/27 01:52:56;;;;;;;;;;;;;;;;;;5035587;28;19960;-48
2022/03/27 01:55:21;;;;;;;;;;;;;;;;;;5036832;28;20007;-51
2022/03/27 01:57:47;;;;;;;;;;;;;;;;;;5036768;28;20435;-49
2022/03/27 02:00:12;;;;;;;;;;;;;;;;;;5036663;28;20373;-49
2022/03/27 02:02:38;;;;;;;;;;;;;;;;;;5036490;28;19913;-49
2022/03/27 02:05:04;;;;;;;;;;;;;;;;;;5036990;28;20324;-49
2022/03/27 02:07:29;;;;;;;;;;;;;;;;;;5036706;28;19994;-49
2022/03/27 02:09:54;;;;;;;;;;;;;;;;;;5036417;28;19913;-49
2022/03/27 02:12:19;;;;;;;;;;;;;;;;;;5036490;28;20276;-49
2022/03/27 02:14:44;;;;;;;;;;;;;;;;;;5035749;28;19916;-49
2022/03/27 02:17:10;;;;;;;;;;;;;;;;;;5036153;28;19909;-48
2022/03/27 02:19:38;;;;;;;;;;;;;;;;;;5036265;28;19910;-47
2022/03/27 02:22:03;;;;;;;;;;;;;;;;;;5035996;28;19909;-51
2022/03/27 02:24:28;;;;;;;;;;;;;;;;;;5036268;28;19920;-49
2022/03/27 02:26:53;;;;;;;;;;;;;;;;;;5052719;28;19939;-49
2022/03/27 02:29:19;;;;;;;;;;;;;;;;;;5056283;28;19913;-49
2022/03/27 02:31:45;;;;;;;;;;;;;;;;;;5055987;28;20323;-48
2022/03/27 02:34:10;;;;;;;;;;;;;;;;;;5056092;28;19920;-51
2022/03/27 02:36:35;;;;;;;;;;;;;;;;;;5056000;28;19935;-51
2022/03/27 02:39:00;;;;;;;;;;;;;;;;;;5055910;28;19916;-48
2022/03/27 02:41:25;;;;;;;;;;;;;;;;;;5055725;28;19944;-49
2022/03/27 02:43:50;;;;;;;;;;;;;;;;;;5055739;28;19966;-49
2022/03/27 02:46:15;;;;;;;;;;;;;;;;;;5055773;28;19909;-49
2022/03/27 02:48:40;;;;;;;;;;;;;;;;;;5055745;28;19995;-48
2022/03/27 02:51:06;;;;;;;;;;;;;;;;;;5054685;28;19940;-49
2022/03/27 02:53:31;;;;;;;;;;;;;;;;;;5055806;28;19955;-49
2022/03/27 02:55:56;;;;;;;;;;;;;;;;;;5048097;28;20262;-48
2022/03/27 02:58:21;;;;;;;;;;;;;;;;;;5035858;28;19914;-49
2022/03/27 03:00:46;;;;;;;;;;;;;;;;;;5035405;28;19917;-48
2022/03/27 03:03:12;;;;;;;;;;;;;;;;;;5035745;28;19913;-49
2022/03/27 03:05:38;;;;;;;;;;;;;;;;;;5035549;28;19909;-49
2022/03/27 03:08:03;;;;;;;;;;;;;;;;;;5035647;28;19909;-49
2022/03/27 03:10:31;;;;;;;;;;;;;;;;;;5035519;28;19910;-49
2022/03/27 03:12:56;;;;;;;;;;;;;;;;;;5035427;28;19924;-49
2022/03/27 03:15:23;;;;;;;;;;;;;;;;;;5035942;28;19909;-48
2022/03/27 03:17:48;;;;;;;;;;;;;;;;;;5035555;28;19916;-48
2022/03/27 03:20:13;;;;;;;;;;;;;;;;;;5035361;28;19909;-48
2022/03/27 03:22:40;;;;;;;;;;;;;;;;;;5035102;28;19940;-48
2022/03/27 03:25:05;;;;;;;;;;;;;;;;;;5034955;28;19971;-48
2022/03/27 03:27:30;;;;;;;;;;;;;;;;;;5034648;28;19913;-49
2022/03/27 03:29:55;;;;;;;;;;;;;;;;;;5035191;28;19905;-49
2022/03/27 03:32:22;;;;;;;;;;;;;;;;;;5034991;28;19909;-48
2022/03/27 03:34:47;;;;;;;;;;;;;;;;;;5034978;28;19909;-49
2022/03/27 03:37:13;;;;;;;;;;;;;;;;;;5034676;28;19913;-48
2022/03/27 03:39:38;;;;;;;;;;;;;;;;;;5034659;28;20386;-48
2022/03/27 03:42:03;;;;;;;;;;;;;;;;;;5034739;28;20014;-47
2022/03/27 03:44:28;;;;;;;;;;;;;;;;;;5034903;28;19991;-50
2022/03/27 03:46:54;;;;;;;;;;;;;;;;;;5034564;28;19955;-48
2022/03/27 03:49:20;;;;;;;;;;;;;;;;;;5034900;28;19924;-48
2022/03/27 03:51:45;;;;;;;;;;;;;;;;;;5035441;28;19916;-47
2022/03/27 03:54:10;;;;;;;;;;;;;;;;;;5034641;28;19945;-47
2022/03/27 03:56:36;;;;;;;;;;;;;;;;;;5051033;28;20287;-48
2022/03/27 03:59:01;;;;;;;;;;;;;;;;;;5054646;28;20276;-49
2022/03/27 04:01:26;;;;;;;;;;;;;;;;;;5054499;28;20789;-49
2022/03/27 04:03:51;;;;;;;;;;;;;;;;;;5054466;28;19960;-50
2022/03/27 04:06:16;;;;;;;;;;;;;;;;;;5054775;28;19916;-49
2022/03/27 04:08:41;;;;;;;;;;;;;;;;;;5054400;28;19916;-48
2022/03/27 04:11:06;;;;;;;;;;;;;;;;;;5054607;28;19958;-49
2022/03/27 04:13:31;;;;;;;;;;;;;;;;;;5054439;28;19915;-47
2022/03/27 04:15:57;;;;;;;;;;;;;;;;;;5054595;28;19951;-48
2022/03/27 04:18:22;;;;;;;;;;;;;;;;;;5054325;28;19916;-49
2022/03/27 04:20:47;;;;;;;;;;;;;;;;;;5054326;28;19913;-50
2022/03/27 04:23:14;;;;;;;;;;;;;;;;;;5054059;28;19990;-49
2022/03/27 04:25:39;;;;;;;;;;;;;;;;;;5047227;28;19956;-49
2022/03/27 04:28:04;;;;;;;;;;;;;;;;;;5034468;28;20287;-49
2022/03/27 04:30:29;;;;;;;;;;;;;;;;;;5034415;28;19955;-49
2022/03/27 04:32:55;;;;;;;;;;;;;;;;;;5034268;28;19920;-49
2022/03/27 04:35:20;;;;;;;;;;;;;;;;;;5034344;28;20000;-49
2022/03/27 04:37:46;;;;;;;;;;;;;;;;;;5034719;28;19971;-51
2022/03/27 04:40:13;;;;;;;;;;;;;;;;;;5037865;28;19968;-51
2022/03/27 04:42:38;;;;;;;;;;;;;;;;;;5038188;28;19917;-48
2022/03/27 04:45:03;;;;;;;;;;;;;;;;;;5038137;28;19936;-49
2022/03/27 04:47:28;;;;;;;;;;;;;;;;;;5037940;28;19935;-51
2022/03/27 04:49:53;;;;;;;;;;;;;;;;;;5037854;28;19909;-48
2022/03/27 04:52:18;;;;;;;;;;;;;;;;;;5037689;28;19909;-49
2022/03/27 04:54:44;;;;;;;;;;;;;;;;;;5037806;28;19909;-49
2022/03/27 04:57:09;;;;;;;;;;;;;;;;;;5053440;28;20383;-49
2022/03/27 04:59:34;;;;;;;;;;;;;;;;;;5057834;28;19909;-48
2022/03/27 05:01:59;;;;;;;;;;;;;;;;;;5057701;28;19915;-49
2022/03/27 05:04:25;;;;;;;;;;;;;;;;;;5057543;28;19909;-49
2022/03/27 05:06:50;;;;;;;;;;;;;;;;;;5057357;28;19913;-48
2022/03/27 05:09:15;;;;;;;;;;;;;;;;;;5057507;28;19916;-49
2022/03/27 05:11:41;;;;;;;;;;;;;;;;;;5057406;28;19908;-49
2022/03/27 05:14:06;;;;;;;;;;;;;;;;;;5057350;28;19913;-51
2022/03/27 05:16:31;;;;;;;;;;;;;;;;;;5057297;28;19916;-49
2022/03/27 05:18:56;;;;;;;;;;;;;;;;;;5057413;28;19959;-48
2022/03/27 05:21:23;;;;;;;;;;;;;;;;;;5057489;28;19912;-48
2022/03/27 05:23:48;;;;;;;;;;;;;;;;;;5057088;28;19920;-48
2022/03/27 05:26:13;;;;;;;;;;;;;;;;;;5040415;28;19958;-50
2022/03/27 05:28:38;;;;;;;;;;;;;;;;;;5037457;28;19913;-48
2022/03/27 05:31:08;;;;;;;;;;;;;;;;;;5037618;28;19972;-48
2022/03/27 05:33:33;;;;;;;;;;;;;;;;;;5037379;28;19909;-48
2022/03/27 05:35:59;;;;;;;;;;;;;;;;;;5037449;28;19924;-49
2022/03/27 05:38:24;;;;;;;;;;;;;;;;;;5037382;28;19909;-49
2022/03/27 05:40:49;;;;;;;;;;;;;;;;;;5036887;28;19913;-49
2022/03/27 05:43:14;;;;;;;;;;;;;;;;;;5036987;28;19913;-49
2022/03/27 05:45:40;;;;;;;;;;;;;;;;;;5037100;28;20280;-49
2022/03/27 05:48:06;;;;;;;;;;;;;;;;;;5036547;28;19909;-48
2022/03/27 05:50:31;;;;;;;;;;;;;;;;;;5036390;28;20003;-48
2022/03/27 05:52:57;;;;;;;;;;;;;;;;;;5036824;28;20319;-49
2022/03/27 05:55:22;;;;;;;;;;;;;;;;;;5046440;28;19920;-48
2022/03/27 05:57:49;;;;;;;;;;;;;;;;;;5055942;28;20402;-50
2022/03/27 06:00:19;;;;;;;;;;;;;;;;;;5056669;28;19913;-50
2022/03/27 06:02:45;;;;;;;;;;;;;;;;;;5056584;28;20015;-48
2022/03/27 06:05:10;;;;;;;;;;;;;;;;;;5056385;28;19959;-48
2022/03/27 06:07:35;;;;;;;;;;;;;;;;;;5056340;28;19909;-48
2022/03/27 06:10:00;;;;;;;;;;;;;;;;;;5056086;28;19924;-49
2022/03/27 06:12:25;;;;;;;;;;;;;;;;;;5056094;28;20334;-48
2022/03/27 06:14:50;;;;;;;;;;;;;;;;;;5056171;28;19916;-48
2022/03/27 06:17:15;;;;;;;;;;;;;;;;;;5056078;28;20018;-48
2022/03/27 06:19:41;;;;;;;;;;;;;;;;;;5056237;28;20042;-49
2022/03/27 06:22:07;;;;;;;;;;;;;;;;;;5055737;28;20291;-49
2022/03/27 06:24:32;;;;;;;;;;;;;;;;;;5055377;28;20261;-49
2022/03/27 06:26:57;;;;;;;;;;;;;;;;;;5055802;28;19935;-50
2022/03/27 06:29:22;;;;;;;;;;;;;;;;;;5056074;28;19916;-51
2022/03/27 06:31:48;;;;;;;;;;;;;;;;;;5056176;28;19923;-49
2022/03/27 06:34:13;;;;;;;;;;;;;;;;;;5056246;28;19912;-52
2022/03/27 06:36:41;;;;;;;;;;;;;;;;;;5056071;28;19908;-50
2022/03/27 06:39:06;;;;;;;;;;;;;;;;;;5055815;28;20388;-48
2022/03/27 06:41:31;;;;;;;;;;;;;;;;;;5056002;28;19916;-49
2022/03/27 06:43:56;;;;;;;;;;;;;;;;;;5055777;28;19954;-51
2022/03/27 06:46:21;;;;;;;;;;;;;;;;;;5055812;28;19962;-49
2022/03/27 06:48:47;;;;;;;;;;;;;;;;;;5055807;28;20388;-48
2022/03/27 06:51:13;;;;;;;;;;;;;;;;;;5055770;28;20364;-48
2022/03/27 06:53:38;;;;;;;;;;;;;;;;;;5055694;28;19909;-49
2022/03/27 06:56:03;;;;;;;;;;;;;;;;;;5055060;28;19962;-48
2022/03/27 06:58:28;;;;;;;;;;;;;;;;;;5055454;28;20287;-49
2022/03/27 07:03:37;;;;;;;;;;;;;;;;;;5055467;28;20012;-51
2022/03/27 07:06:02;;;;;;;;;;;;;;;;;;5054077;28;20340;-49
2022/03/27 07:08:27;;;;;;;;;;;;;;;;;;5055179;28;19996;-50
2022/03/27 07:10:52;;;;;;;;;;;;;;;;;;5055100;28;19959;-50
2022/03/27 07:13:17;;;;;;;;;;;;;;;;;;5055102;28;19951;-49
2022/03/27 07:15:42;;;;;;;;;;;;;;;;;;5055085;28;19908;-49
2022/03/27 07:18:08;;;;;;;;;;;;;;;;;;5055173;28;19954;-49
2022/03/27 07:20:33;;;;;;;;;;;;;;;;;;5055067;28;19909;-50
2022/03/27 07:22:58;;;;;;;;;;;;;;;;;;5054784;28;19921;-50
2022/03/27 07:25:23;;;;;;;;;;;;;;;;;;5040049;28;19913;-51
2022/03/27 07:27:48;;;;;;;;;;;;;;;;;;5035397;28;20423;-49
2022/03/27 07:30:13;;;;;;;;;;;;;;;;;;5035006;28;20384;-50
2022/03/27 07:32:39;;;;;;;;;;;;;;;;;;5034911;28;19920;-49
2022/03/27 07:35:04;;;;;;;;;;;;;;;;;;5034929;28;19910;-49
2022/03/27 07:37:32;;;;;;;;;;;;;;;;;;5034988;28;19915;-50
2022/03/27 07:39:58;;;;;;;;;;;;;;;;;;5034915;28;20435;-50
2022/03/27 07:42:23;;;;;;;;;;;;;;;;;;5034673;28;20000;-51
2022/03/27 07:44:48;;;;;;;;;;;;;;;;;;5041894;28;19916;-51
2022/03/27 07:47:13;;;;;;;;;;;;;;;;;;5016975;28;19914;-48
2022/03/27 07:49:38;;;;;;;;;;;;;;;;;;5014359;28;19913;-49
2022/03/27 07:52:06;;;;;;;;;;;;;;;;;;5014995;28;19997;-51
2022/03/27 07:54:31;;;;;;;;;;;;;;;;;;5022557;28;19914;-48
2022/03/27 07:56:56;;;;;;;;;;;;;;;;;;5032728;28;20287;-50
2022/03/27 07:59:21;;;;;;;;;;;;;;;;;;5034706;28;19910;-50
2022/03/27 08:01:46;;;;;;;;;;;;;;;;;;5034414;28;20043;-51
2022/03/27 08:04:11;;;;;;;;;;;;;;;;;;5034528;28;19920;-48
2022/03/27 08:06:37;;;;;;;;;;;;;;;;;;5034707;28;19916;-51
2022/03/27 08:09:02;;;;;;;;;;;;;;;;;;5034565;28;19963;-51
2022/03/27 08:11:27;;;;;;;;;;;;;;;;;;5034488;28;20094;-50
2022/03/27 08:13:52;;;;;;;;;;;;;;;;;;5038544;28;19909;-51
2022/03/27 08:16:17;;;;;;;;;;;;;;;;;;5038645;28;20365;-50
2022/03/27 08:18:43;;;;;;;;;;;;;;;;;;5038467;28;20265;-50
2022/03/27 08:21:08;;;;;;;;;;;;;;;;;;5038476;28;19909;-50
2022/03/27 08:23:33;;;;;;;;;;;;;;;;;;5039804;28;19929;-50
2022/03/27 08:28:42;;;;;;;;;;;;;;;;;;5058625;28;19939;-48
2022/03/27 08:31:07;;;;;;;;;;;;;;;;;;5057063;28;20371;-49
2022/03/27 08:33:32;;;;;;;;;;;;;;;;;;5058814;28;19968;-48
2022/03/27 08:35:58;;;;;;;;;;;;;;;;;;5058394;28;19932;-49
2022/03/27 08:38:23;;;;;;;;;;;;;;;;;;5058286;28;19909;-48
2022/03/27 08:40:48;;;;;;;;;;;;;;;;;;5056836;28;20312;-48
2022/03/27 08:43:13;;;;;;;;;;;;;;;;;;5057885;28;20023;-48
2022/03/27 08:45:38;;;;;;;;;;;;;;;;;;5057862;28;19916;-48
2022/03/27 08:48:04;;;;;;;;;;;;;;;;;;5057867;28;19932;-50
2022/03/27 08:50:32;;;;;;;;;;;;;;;;;;5057739;28;19909;-50
2022/03/27 08:52:57;;;;;;;;;;;;;;;;;;5057791;28;19908;-49
2022/03/27 08:55:22;;;;;;;;;;;;;;;;;;5054445;28;19963;-51
2022/03/27 08:57:47;;;;;;;;;;;;;;;;;;5037770;28;20378;-49
2022/03/27 09:00:13;;;;;;;;;;;;;;;;;;5037861;28;19959;-49
2022/03/27 09:02:38;;;;;;;;;;;;;;;;;;5037705;28;20380;-52
2022/03/27 09:05:03;;;;;;;;;;;;;;;;;;5037593;28;19916;-49
2022/03/27 09:07:29;;;;;;;;;;;;;;;;;;5037587;28;20385;-48
2022/03/27 09:09:54;;;;;;;;;;;;;;;;;;5038231;28;19909;-48
2022/03/27 09:12:19;;;;;;;;;;;;;;;;;;5037984;28;19913;-49
2022/03/27 09:14:44;;;;;;;;;;;;;;;;;;5037614;28;19999;-49
2022/03/27 09:17:09;;;;;;;;;;;;;;;;;;5037601;28;20031;-49
2022/03/27 09:19:34;;;;;;;;;;;;;;;;;;5037445;28;20422;-49
2022/03/27 09:21:59;;;;;;;;;;;;;;;;;;5037449;28;19916;-50
2022/03/27 09:24:24;;;;;;;;;;;;;;;;;;5045711;28;20320;-50
2022/03/27 09:26:50;;;;;;;;;;;;;;;;;;5057318;28;20001;-49
2022/03/27 09:29:15;;;;;;;;;;;;;;;;;;5057290;28;19909;-48
2022/03/27 09:31:40;;;;;;;;;;;;;;;;;;5057406;28;19915;-49
2022/03/27 09:34:07;;;;;;;;;;;;;;;;;;5057348;28;19956;-49
2022/03/27 09:36:33;;;;;;;;;;;;;;;;;;5057142;28;19909;-51
2022/03/27 09:38:58;;;;;;;;;;;;;;;;;;5056810;28;19940;-49
2022/03/27 09:41:23;;;;;;;;;;;;;;;;;;5035915;28;20007;-50
2022/03/27 09:43:48;;;;;;;;;;;;;;;;;;5036982;28;20031;-49
2022/03/27 09:46:13;;;;;;;;;;;;;;;;;;5037291;28;20370;-51
2022/03/27 09:48:38;;;;;;;;;;;;;;;;;;5037107;28;19909;-51
2022/03/27 09:51:03;;;;;;;;;;;;;;;;;;5037107;28;19913;-52
2022/03/27 09:53:29;;;;;;;;;;;;;;;;;;5039996;28;19966;-49
2022/03/27 09:55:54;;;;;;;;;;;;;;;;;;5056934;28;19909;-50
2022/03/27 09:58:19;;;;;;;;;;;;;;;;;;5057005;28;19908;-51
2022/03/27 10:00:44;;;;;;;;;;;;;;;;;;5056937;28;19923;-51
2022/03/27 10:03:12;;;;;;;;;;;;;;;;;;5056394;28;20003;-50
2022/03/27 10:05:37;;;;;;;;;;;;;;;;;;5056326;28;19909;-51
2022/03/27 10:08:03;;;;;;;;;;;;;;;;;;5056509;28;19909;-49
2022/03/27 10:10:28;;;;;;;;;;;;;;;;;;5056538;28;19913;-52
2022/03/27 10:12:53;;;;;;;;;;;;;;;;;;5056110;28;20267;-51
2022/03/27 10:15:19;;;;;;;;;;;;;;;;;;5056275;28;19912;-49
2022/03/27 10:17:44;;;;;;;;;;;;;;;;;;5056255;28;20378;-53
2022/03/27 10:20:09;;;;;;;;;;;;;;;;;;5056138;28;19996;-52
2022/03/27 10:22:37;;;;;;;;;;;;;;;;;;5056042;28;19920;-50
2022/03/27 10:25:03;;;;;;;;;;;;;;;;;;5037689;28;19917;-49
2022/03/27 10:27:30;;;;;;;;;;;;;;;;;;5036377;28;19966;-49
2022/03/27 10:29:55;;;;;;;;;;;;;;;;;;5036209;28;19916;-49
2022/03/27 10:32:20;;;;;;;;;;;;;;;;;;5036230;28;20304;-49
2022/03/27 10:34:45;;;;;;;;;;;;;;;;;;5035542;28;19913;-51
2022/03/27 10:37:10;;;;;;;;;;;;;;;;;;5035830;28;20009;-48
2022/03/27 10:39:37;;;;;;;;;;;;;;;;;;5036201;28;19910;-50
2022/03/27 10:42:03;;;;;;;;;;;;;;;;;;5036147;28;19924;-48
2022/03/27 10:44:28;;;;;;;;;;;;;;;;;;5036114;28;19913;-49
2022/03/27 10:46:53;;;;;;;;;;;;;;;;;;5035727;28;19910;-50
2022/03/27 10:49:18;;;;;;;;;;;;;;;;;;5035967;28;19909;-50
2022/03/27 10:51:43;;;;;;;;;;;;;;;;;;5035885;28;20280;-49
2022/03/27 10:54:09;;;;;;;;;;;;;;;;;;5035802;28;19916;-49
2022/03/27 10:56:34;;;;;;;;;;;;;;;;;;5036938;28;19927;-47
2022/03/27 10:58:59;;;;;;;;;;;;;;;;;;5035687;28;19913;-51
2022/03/27 11:01:25;;;;;;;;;;;;;;;;;;5034574;28;19913;-50
2022/03/27 11:03:51;;;;;;;;;;;;;;;;;;5035181;28;19917;-49
2022/03/27 11:06:16;;;;;;;;;;;;;;;;;;5035258;28;20330;-49
2022/03/27 11:08:42;;;;;;;;;;;;;;;;;;5035370;28;20000;-49
2022/03/27 11:11:07;;;;;;;;;;;;;;;;;;5035369;28;19913;-49
2022/03/27 11:13:32;;;;;;;;;;;;;;;;;;5033914;28;20357;-50
2022/03/27 11:15:57;;;;;;;;;;;;;;;;;;5034942;28;19909;-50
2022/03/27 11:18:22;;;;;;;;;;;;;;;;;;5035458;28;19948;-49
2022/03/27 11:20:47;;;;;;;;;;;;;;;;;;5035197;28;19979;-49
2022/03/27 11:23:12;;;;;;;;;;;;;;;;;;5040396;28;19924;-49
2022/03/27 11:25:37;;;;;;;;;;;;;;;;;;5054991;28;20378;-50
2022/03/27 11:28:02;;;;;;;;;;;;;;;;;;5055002;28;19909;-51
2022/03/27 11:30:28;;;;;;;;;;;;;;;;;;5054915;28;19966;-50
2022/03/27 11:32:53;;;;;;;;;;;;;;;;;;5054881;28;19909;-49
2022/03/27 11:35:18;;;;;;;;;;;;;;;;;;5054919;28;19954;-50
2022/03/27 11:37:43;;;;;;;;;;;;;;;;;;5054776;28;19963;-50
2022/03/27 11:40:08;;;;;;;;;;;;;;;;;;5054750;28;19916;-49
2022/03/27 11:42:33;;;;;;;;;;;;;;;;;;5054517;28;19920;-51
2022/03/27 11:45:08;;;;;;;;;;;;;;;;;;5054575;28;19909;-50
2022/03/27 11:47:33;;;;;;;;;;;;;;;;;;5053918;28;19913;-52
2022/03/27 11:49:58;;;;;;;;;;;;;;;;;;5054903;28;19908;-51
2022/03/27 11:52:23;;;;;;;;;;;;;;;;;;5054695;28;20350;-49
2022/03/27 11:54:48;;;;;;;;;;;;;;;;;;5035660;28;19957;-51
2022/03/27 11:57:13;;;;;;;;;;;;;;;;;;5034955;28;20423;-48
2022/03/27 11:59:38;;;;;;;;;;;;;;;;;;5034573;28;19917;-49
2022/03/27 12:02:03;;;;;;;;;;;;;;;;;;5034635;28;19913;-51
2022/03/27 12:04:29;;;;;;;;;;;;;;;;;;5034717;28;19963;-50
2022/03/27 12:06:54;;;;;;;;;;;;;;;;;;5034685;28;20012;-51
2022/03/27 12:09:19;;;;;;;;;;;;;;;;;;5034567;28;20376;-49
2022/03/27 12:11:44;;;;;;;;;;;;;;;;;;5034488;28;20360;-52
2022/03/27 12:14:11;;;;;;;;;;;;;;;;;;5034583;28;19924;-50
2022/03/27 12:16:37;;;;;;;;;;;;;;;;;;5034155;28;19913;-51
2022/03/27 12:19:02;;;;;;;;;;;;;;;;;;5034738;28;19910;-51
2022/03/27 12:21:27;;;;;;;;;;;;;;;;;;5033395;28;19909;-50
2022/03/27 12:23:55;;;;;;;;;;;;;;;;;;5034743;28;19921;-49
2022/03/27 12:31:47;;;;;;;;;;;;;;;;;;5054621;28;19915;-50
2022/03/27 12:34:13;;;;;;;;;;;;;;;;;;5054522;28;19909;-48
2022/03/27 12:36:38;;;;;;;;;;;;;;;;;;5054539;28;19915;-49
2022/03/27 12:39:03;;;;;;;;;;;;;;;;;;5054640;28;19941;-52
2022/03/27 12:41:28;;;;;;;;;;;;;;;;;;5054432;28;19913;-53
2022/03/27 12:43:54;;;;;;;;;;;;;;;;;;5054477;28;19913;-49
2022/03/27 12:46:20;;;;;;;;;;;;;;;;;;5054278;28;19908;-50
2022/03/27 12:48:45;;;;;;;;;;;;;;;;;;5054106;28;19987;-49
2022/03/27 12:51:11;;;;;;;;;;;;;;;;;;5053584;28;20315;-49
2022/03/27 12:53:36;;;;;;;;;;;;;;;;;;5053752;28;19913;-49
2022/03/27 12:56:01;;;;;;;;;;;;;;;;;;5054022;28;19963;-51
2022/03/27 12:58:26;;;;;;;;;;;;;;;;;;5055346;28;19909;-52
2022/03/27 13:00:51;;;;;;;;;;;;;;;;;;5057711;28;20355;-49
2022/03/27 13:03:17;;;;;;;;;;;;;;;;;;5057609;28;19960;-49
2022/03/27 13:05:42;;;;;;;;;;;;;;;;;;5057898;28;19916;-49
2022/03/27 13:08:08;;;;;;;;;;;;;;;;;;5057588;28;19982;-50
2022/03/27 13:10:33;;;;;;;;;;;;;;;;;;5057620;28;19919;-50
2022/03/27 13:12:58;;;;;;;;;;;;;;;;;;5057400;28;19999;-50
2022/03/27 13:15:24;;;;;;;;;;;;;;;;;;5057525;28;19932;-49
2022/03/27 13:17:49;;;;;;;;;;;;;;;;;;5057415;28;19916;-52
2022/03/27 13:20:14;;;;;;;;;;;;;;;;;;5034938;28;19909;-50
2022/03/27 13:22:43;;;;;;;;;;;;;;;;;;5048730;22;19925;-50
2022/03/27 13:25:08;;;;;;;;;;;;;;;;;;5057337;28;19909;-50
2022/03/27 13:27:33;;;;;;;;;;;;;;;;;;5057254;28;19954;-49
2022/03/27 13:29:58;;;;;;;;;;;;;;;;;;5057202;28;20007;-53
2022/03/27 13:32:23;;;;;;;;;;;;;;;;;;5057498;28;19959;-51
2022/03/27 13:34:48;;;;;;;;;;;;;;;;;;5057098;28;20070;-49
2022/03/27 13:37:13;;;;;;;;;;;;;;;;;;5057090;28;19952;-48
2022/03/27 13:39:38;;;;;;;;;;;;;;;;;;5057028;28;19944;-49
2022/03/27 13:44:47;;;;;;;;;;;;;;;;;;5050790;28;19939;-51
2022/03/27 13:47:13;;;;;;;;;;;;;;;;;;5036921;28;19913;-49
2022/03/27 13:49:38;;;;;;;;;;;;;;;;;;5039253;28;20314;-50
2022/03/27 13:52:03;;;;;;;;;;;;;;;;;;5056781;28;19916;-50
2022/03/27 13:54:28;;;;;;;;;;;;;;;;;;5056601;28;20364;-49
2022/03/27 13:56:53;;;;;;;;;;;;;;;;;;5056450;28;19987;-50
2022/03/27 13:59:18;;;;;;;;;;;;;;;;;;5056434;28;20424;-50
2022/03/27 14:01:43;;;;;;;;;;;;;;;;;;5056498;28;20383;-49
2022/03/27 14:04:08;;;;;;;;;;;;;;;;;;5056436;28;19913;-50
2022/03/27 14:06:34;;;;;;;;;;;;;;;;;;5056948;28;19909;-50
2022/03/27 14:08:59;;;;;;;;;;;;;;;;;;5056703;28;20268;-50
2022/03/27 14:11:24;;;;;;;;;;;;;;;;;;5056137;28;19909;-50
2022/03/27 14:13:49;;;;;;;;;;;;;;;;;;5055176;28;19944;-50
2022/03/27 14:16:14;;;;;;;;;;;;;;;;;;5036797;28;19913;-50
2022/03/27 14:18:40;;;;;;;;;;;;;;;;;;5036146;28;20267;-51
2022/03/27 14:21:05;;;;;;;;;;;;;;;;;;5052942;28;19927;-50
2022/03/27 14:23:30;;;;;;;;;;;;;;;;;;5055885;28;19925;-51
2022/03/27 14:25:57;;;;;;;;;;;;;;;;;;5055904;28;19923;-52
2022/03/27 14:28:22;;;;;;;;;;;;;;;;;;5056136;28;19909;-52
2022/03/27 14:30:48;;;;;;;;;;;;;;;;;;5053502;28;20311;-50
2022/03/27 14:33:13;;;;;;;;;;;;;;;;;;5055878;28;19913;-48
2022/03/27 14:35:38;;;;;;;;;;;;;;;;;;5055651;28;19948;-49
2022/03/27 14:38:04;;;;;;;;;;;;;;;;;;5055792;28;19916;-50
2022/03/27 14:40:29;;;;;;;;;;;;;;;;;;5055770;28;20071;-50
2022/03/27 14:42:54;;;;;;;;;;;;;;;;;;5055654;28;19913;-52
2022/03/27 14:45:20;;;;;;;;;;;;;;;;;;5055628;28;19916;-50
2022/03/27 14:47:45;;;;;;;;;;;;;;;;;;5055698;28;19917;-51
2022/03/27 14:50:10;;;;;;;;;;;;;;;;;;5055216;28;20334;-50
2022/03/27 14:52:36;;;;;;;;;;;;;;;;;;5055648;28;19912;-52
2022/03/27 14:57:45;;;;;;;;;;;;;;;;;;5055403;28;19920;-50
2022/03/27 15:00:10;;;;;;;;;;;;;;;;;;5055478;28;19909;-49
2022/03/27 15:02:35;;;;;;;;;;;;;;;;;;5055494;28;19920;-49
2022/03/27 15:05:00;;;;;;;;;;;;;;;;;;5055490;28;20257;-48
2022/03/27 15:07:25;;;;;;;;;;;;;;;;;;5070040;28;19913;-50
2022/03/27 15:09:50;;;;;;;;;;;;;;;;;;5075388;28;19912;-51
2022/03/27 15:12:16;;;;;;;;;;;;;;;;;;5075160;28;20316;-51
2022/03/27 15:14:41;;;;;;;;;;;;;;;;;;5075283;28;19915;-50
2022/03/27 15:17:06;;;;;;;;;;;;;;;;;;5075316;28;19915;-50
2022/03/27 15:19:32;;;;;;;;;;;;;;;;;;5075205;28;19947;-53
2022/03/27 15:21:57;;;;;;;;;;;;;;;;;;5075027;28;19909;-52
2022/03/27 15:24:25;;;;;;;;;;;;;;;;;;5074806;28;19920;-51
2022/03/27 15:26:50;;;;;;;;;;;;;;;;;;5074987;28;19942;-51
2022/03/27 15:29:16;;;;;;;;;;;;;;;;;;5060021;28;20000;-50
2022/03/27 15:31:41;;;;;;;;;;;;;;;;;;5055177;28;20233;-48
2022/03/27 15:34:06;;;;;;;;;;;;;;;;;;5055203;28;20327;-49
2022/03/27 15:36:31;;;;;;;;;;;;;;;;;;5054720;28;19909;-48
2022/03/27 15:38:56;;;;;;;;;;;;;;;;;;5054972;28;19909;-49
2022/03/27 15:41:24;;;;;;;;;;;;;;;;;;5054798;28;19955;-50
2022/03/27 15:43:49;;;;;;;;;;;;;;;;;;5054687;28;19970;-48
2022/03/27 15:46:14;;;;;;;;;;;;;;;;;;5054799;28;19912;-50
2022/03/27 15:48:40;;;;;;;;;;;;;;;;;;5053519;28;19920;-50
2022/03/27 15:51:05;;;;;;;;;;;;;;;;;;5054567;28;19916;-51
2022/03/27 15:53:30;;;;;;;;;;;;;;;;;;5053342;28;19969;-52
2022/03/27 15:55:55;;;;;;;;;;;;;;;;;;5054516;28;20419;-50
2022/03/27 15:58:20;;;;;;;;;;;;;;;;;;5054269;28;19913;-50
2022/03/27 16:00:46;;;;;;;;;;;;;;;;;;5054541;28;19943;-50
2022/03/27 16:03:11;;;;;;;;;;;;;;;;;;5054481;28;19963;-49
2022/03/27 16:05:36;;;;;;;;;;;;;;;;;;5054382;28;19909;-49
2022/03/27 16:08:01;;;;;;;;;;;;;;;;;;5054545;28;19956;-50
2022/03/27 16:10:26;;;;;;;;;;;;;;;;;;5054546;28;19912;-52
2022/03/27 16:12:51;;;;;;;;;;;;;;;;;;5054439;28;20378;-52
2022/03/27 16:15:17;;;;;;;;;;;;;;;;;;5054361;28;19949;-51
2022/03/27 16:17:42;;;;;;;;;;;;;;;;;;5053280;28;19932;-52
2022/03/27 16:20:08;;;;;;;;;;;;;;;;;;5054489;28;19932;-50
2022/03/27 16:22:33;;;;;;;;;;;;;;;;;;5054019;28;19966;-51
2022/03/27 16:24:58;;;;;;;;;;;;;;;;;;5054269;28;20332;-49
2022/03/27 16:27:26;;;;;;;;;;;;;;;;;;5053612;28;20328;-50
2022/03/27 16:29:52;;;;;;;;;;;;;;;;;;5054269;28;20356;-50
2022/03/27 16:32:17;;;;;;;;;;;;;;;;;;5054415;28;19952;-52
2022/03/27 16:34:42;;;;;;;;;;;;;;;;;;5058063;28;19916;-50
2022/03/27 16:37:08;;;;;;;;;;;;;;;;;;5058240;28;19963;-52
2022/03/27 16:39:33;;;;;;;;;;;;;;;;;;5058086;28;19916;-50
2022/03/27 16:41:58;;;;;;;;;;;;;;;;;;5057998;28;19911;-50
2022/03/27 16:44:23;;;;;;;;;;;;;;;;;;5056683;28;20359;-53
2022/03/27 16:46:48;;;;;;;;;;;;;;;;;;5073866;28;19912;-50
2022/03/27 16:49:13;;;;;;;;;;;;;;;;;;5066021;28;19955;-51
2022/03/27 16:51:39;;;;;;;;;;;;;;;;;;5057929;28;19909;-50
2022/03/27 16:54:04;;;;;;;;;;;;;;;;;;5057847;28;20089;-50